To NAV CANADA Home Page Login to a new session Search on AWWS site Feedback and Comments Disclaimer Vers la page française équivalente Tips FAQ What's new on the site To the Forecasts and Observations / NOTAM section To "File a Flight Plan" website Publications and other links Update of the User's profile FIC Telephone Numbers My Weather Data Folder Route Weather Data Regional Weather Data Local Weather Data To the Forecasts and Observations / NOTAM section
Request Generated 09/04/2015 at 16:27:19 UTC . Weather information available at that time is displayed.

METAR/TAF

TORONTO/BILLY BISHOP TORONTO CITY AIRPORT/ON    (show WxCam)

METAR CYTZ 041600Z AUTO 07020KT 9SM CLR 23/18 A3011 RMK SLP195
DENSITY ALT 1000FT=
METAR CYTZ 041500Z AUTO 07016KT 9SM CLR 23/18 A3011 RMK SLP194
DENSITY ALT 1000FT=
METAR CYTZ 041400Z AUTO 07014KT 9SM CLR 23/17 A3010 RMK SLP191
DENSITY ALT 1000FT=

TAF CYTZ 041338Z 0414/0514 07015KT P6SM BKN260
FM041500 07015KT P6SM SCT050 BKN120
FM050000 07010KT P6SM FEW050 SCT150
RMK FCST BASED ON AUTO OBS. NXT FCST BY 042000Z=
Your time UTC time
Weather data provided by Environment Canada and NAV CANADA